Vienna, VA (22183)

2:10 AM EST on January 27, 2015 (GMT -0500)
Vienna Woods | Change Station
CLOSE
Current Station
Personal Weather Station
Location: Vienna, VA
Elevation: 361 ft
Nearby Weather Stations
Active Advisory: Winter Weather Advisory Active Notice: Public Information Statement

Elev 361 ft 38.90 °N, 77.27 °W | Updated 34 seconds ago

Snow
Snow
26.2 °F
Feels Like 21 °F
N
4.0
Wind Variable Wind from WSW
Gusts 8.7 mph

Today
High -- | Low -- °F
--% Chance of Precip.
Yesterday
High -- | Low -- °F
Precip. -- in
7:19 AM 5:24 PM
Waxing Crescent, 51% visible
Pressure 29.76 in
Visibility 7.0 miles
Clouds Few 1600 ft
Mostly Cloudy 4100 ft
Overcast 5500 ft
Windchill 21 °F
Dew Point 24 °F
Humidity 93%
Rainfall 0.00 in
Snow Depth Not available.
UV 0 out of 12
Pollen .10 out of 12
Air Quality Not available.
Flu Activity Not available.
METAR KIAD 270652Z 34011KT 7SM FEW016 BKN041 OVC055 M03/M06 A2975 RMK AO2 SNE06 SLP078 P0000 T10281056

More Conditions Fewer Conditions

Pressure 29.76 in
Visibility 7.0 miles
Clouds Few 1600 ft
Mostly Cloudy 4100 ft
Overcast 5500 ft
Windchill 21 °F
Dew Point 24 °F
Humidity 93%
Rainfall 0.00 in
Snow Depth Not available.
UV 0 out of 12
Pollen .10 out of 12
Air Quality Not available.
Flu Activity Not available.
METAR KIAD 270652Z 34011KT 7SM FEW016 BKN041 OVC055 M03/M06 A2975 RMK AO2 SNE06 SLP078 P0000 T10281056

More Conditions Fewer Conditions

Nowcast | as of 1:44 am EST on January 27, 2015

Through 4 am...a narrow band of snow will continue to impact an area from Carroll and Frederick counties in north central Maryland south across the immediate Washington DC Metro and southern Maryland. Occasional bursts of moderate snow will occur within the band which may produce brief snowfall rates of one half to one inch per hour along with reduced visibilities to less than one half mile. Travel in these areas may be hazardous due to snow packed and slippery roadways. Motorists are urged to drive with caution. The snow band is expected to shift east and gradually diminish overnight.

×

10-Day Weather Forecast

Almanac

Astronomy

Jan. 27, 2015 Rise Set
Actual Time
Civil Twilight
Nautical Twilight
Astronomical Twilight
Moon
Length of Visible Light
Length of Day
Tomorrow will be .
, % of the Moon is Illuminated

Today's Extremes

State Highs State Lows

Community

WunderPhotos

Upload Photos

1,790,544 photos uploaded!

WunderBlogs® & News

Nearby

Air Quality

  Air Quality AQ Index Pollutant
Not available.

Snow Depth

Station Depth Elevation

Earthquake Activity

City Distance Mag. Time & Date
Minimum magnitude displayed is 2.5.

Coastal Water Temperatures

Place Temperature

Nearby Weather Stations